Terminal Aerodrome Forecast
Issued by NWS Binghamton, NY

Home | Current Version | Previous Version | Text Only | Print | Product List | Glossary On
Versions: 1 2 3 4 5 6 7 8 9 10 11 12 13 14 15 16 17 18 19 20 21
000
FTUS41 KBGM 040525
TAFAVP
TAF
KAVP 040525Z 0406/0506 VRB03KT 4SM -DZ BR OVC005
     FM041000 05002KT 4SM -SHRA BR OVC003
     FM041500 03003KT 4SM -SHRA OVC007=

USA.gov is the U.S. government's official web portal to all federal, state and local government web resources and services.